createdAt,value
2023-01-31T00:01:14.356Z,99551.81
2023-01-31T00:03:18.833Z,99546.63
2023-01-31T00:05:23.701Z,99546.73
2023-01-31T00:07:28.056Z,99548.01
2023-01-31T00:09:32.465Z,99547.83
2023-01-31T00:11:37.601Z,99547.36
2023-01-31T00:13:42.607Z,99552.31
2023-01-31T00:15:47.129Z,99561.23
2023-01-31T00:17:51.672Z,99562.34
2023-01-31T00:19:56.132Z,99569.47
2023-01-31T00:22:00.462Z,99560.47
2023-01-31T00:24:04.794Z,99565.3
2023-01-31T00:26:09.177Z,99558.29
2023-01-31T00:28:13.524Z,99564.58
2023-01-31T00:30:17.841Z,99577.19
2023-01-31T00:32:22.390Z,99569
2023-01-31T00:34:26.838Z,99579.94
2023-01-31T00:36:31.240Z,99574.55
2023-01-31T00:38:36.765Z,99587.98
2023-01-31T00:40:42.085Z,99591.91
2023-01-31T00:42:46.436Z,99596.38
2023-01-31T00:44:50.768Z,99597.8
2023-01-31T00:46:55.266Z,99603.89
2023-01-31T00:48:59.668Z,99595.92
2023-01-31T00:51:03.994Z,99601.53
2023-01-31T00:53:08.358Z,99600.89
2023-01-31T00:55:12.692Z,99604.46
2023-01-31T00:57:17.002Z,99615.07
2023-01-31T00:59:21.341Z,99623.7
2023-01-31T01:01:25.781Z,99616.69
2023-01-31T01:03:30.143Z,99624.98
2023-01-31T01:05:35.953Z,99629.44
2023-01-31T01:07:40.725Z,99625.21
2023-01-31T01:09:45.076Z,99643.88
2023-01-31T01:11:49.411Z,99634.31
2023-01-31T01:13:53.808Z,99632.84
2023-01-31T01:15:58.245Z,99649.52
2023-01-31T01:18:02.695Z,99640.34
2023-01-31T01:20:07.051Z,99646.45
2023-01-31T01:22:11.420Z,99638.42
2023-01-31T01:24:15.750Z,99657.5
2023-01-31T01:26:20.270Z,99632.9
2023-01-31T01:28:24.728Z,99653.56
2023-01-31T01:30:32.212Z,99658.48
2023-01-31T01:32:37.516Z,99672.39
2023-01-31T01:34:41.867Z,99673.22
2023-01-31T01:36:48.955Z,99664.78
2023-01-31T01:38:53.272Z,99677.77
2023-01-31T01:40:57.617Z,99676.24
2023-01-31T01:43:02.010Z,99681.58
2023-01-31T01:45:06.334Z,99677.32
2023-01-31T01:47:10.673Z,99680.44
2023-01-31T01:49:14.999Z,99691.81
2023-01-31T01:51:19.435Z,99695.19
2023-01-31T01:53:23.806Z,99694.73
2023-01-31T01:55:28.264Z,99699.98
2023-01-31T01:57:32.767Z,99706.56
2023-01-31T01:59:37.118Z,99709.55
2023-01-31T02:01:41.480Z,99712.37
2023-01-31T02:03:45.815Z,99713.37
2023-01-31T02:05:50.217Z,99707.38
2023-01-31T02:07:54.598Z,99713.68
2023-01-31T02:09:59.086Z,99721.41
2023-01-31T02:12:03.506Z,99719.34
2023-01-31T02:14:07.836Z,99713.45
2023-01-31T02:16:12.347Z,99726.72
2023-01-31T02:18:16.824Z,99728.09
2023-01-31T02:20:21.210Z,99716.74
2023-01-31T02:22:26.292Z,99719.63
2023-01-31T02:24:30.765Z,99715.91
2023-01-31T02:26:35.209Z,99714.6
2023-01-31T02:28:40.018Z,99719.02
2023-01-31T02:30:44.531Z,99718.6
2023-01-31T02:32:49.049Z,99719.42
2023-01-31T02:34:53.425Z,99728.09
2023-01-31T02:36:57.782Z,99737.62
2023-01-31T02:39:02.119Z,99740.73
2023-01-31T02:41:06.434Z,99743.39
2023-01-31T02:43:10.812Z,99748.69
2023-01-31T02:45:15.150Z,99747.58
2023-01-31T02:47:19.522Z,99767.22
2023-01-31T02:49:24.312Z,99762.7
2023-01-31T02:51:31.482Z,99757.72
2023-01-31T02:53:36.559Z,99762.66
2023-01-31T02:55:41.128Z,99772.3
2023-01-31T02:57:45.461Z,99775.03
2023-01-31T02:59:49.794Z,99779.75
2023-01-31T03:01:54.257Z,99786.61
2023-01-31T03:03:58.610Z,99792.16
2023-01-31T03:06:02.989Z,99799.29
2023-01-31T03:08:07.352Z,99814.28
2023-01-31T03:10:11.779Z,99809.08
2023-01-31T03:12:16.200Z,99811.2
2023-01-31T03:14:21.601Z,99814.22
2023-01-31T03:16:25.993Z,99820.98
2023-01-31T03:18:30.508Z,99814.64
2023-01-31T03:20:34.838Z,99821.84
2023-01-31T03:22:39.960Z,99823.84
2023-01-31T03:24:44.376Z,99823.63
2023-01-31T03:26:48.852Z,99827.18
2023-01-31T03:28:53.252Z,99827.98
2023-01-31T03:30:57.777Z,99823.61
2023-01-31T03:33:02.251Z,99825.28
2023-01-31T03:35:06.584Z,99828.72
2023-01-31T03:37:10.950Z,99828.97
2023-01-31T03:39:15.488Z,99836.21
2023-01-31T03:41:20.013Z,99836.41
2023-01-31T03:43:24.455Z,99847.13
2023-01-31T03:45:28.808Z,99850.33
2023-01-31T03:47:33.574Z,99859.84
2023-01-31T03:49:37.975Z,99852.97
2023-01-31T03:51:42.327Z,99858.88
2023-01-31T03:53:46.666Z,99860.03
2023-01-31T03:55:51.054Z,99863.36
2023-01-31T03:57:55.393Z,99872.71
2023-01-31T03:59:59.815Z,99869.16
2023-01-31T04:02:04.189Z,99875.94
2023-01-31T04:04:08.651Z,99875.25
2023-01-31T04:06:13.407Z,99878.98
2023-01-31T04:08:17.967Z,99884.86
2023-01-31T04:10:22.358Z,99887.48
2023-01-31T04:12:26.707Z,99886.88
2023-01-31T04:14:31.075Z,99893.09
2023-01-31T04:16:35.647Z,99886.44
2023-01-31T04:18:40.243Z,99902.93
2023-01-31T04:20:44.638Z,99894.92
2023-01-31T04:22:48.984Z,99896.64
2023-01-31T04:24:53.313Z,99902.19
2023-01-31T04:26:57.677Z,99910.19
2023-01-31T04:29:02.137Z,99902.66
2023-01-31T04:31:06.730Z,99900.91
2023-01-31T04:33:11.876Z,99905.98
2023-01-31T04:35:16.202Z,99902.7
2023-01-31T04:37:20.587Z,99910.17
2023-01-31T04:39:24.959Z,99915.61
2023-01-31T04:41:29.308Z,99914.25
2023-01-31T04:43:34.124Z,99916.77
2023-01-31T04:45:38.486Z,99927.14
2023-01-31T04:47:42.825Z,99929.02
2023-01-31T04:49:47.186Z,99930.89
2023-01-31T04:51:51.535Z,99931.97
2023-01-31T04:53:56.136Z,99935.86
2023-01-31T04:56:00.477Z,99939.92
2023-01-31T04:58:07.681Z,99935.82
2023-01-31T05:00:12.206Z,99939.14
2023-01-31T05:02:16.632Z,99936.47
2023-01-31T05:04:20.948Z,99933.1
2023-01-31T05:06:25.289Z,99940.63
2023-01-31T05:08:29.771Z,99932.95
2023-01-31T05:10:34.108Z,99938.22
2023-01-31T05:12:38.412Z,99940.3
2023-01-31T05:14:42.727Z,99940.84
2023-01-31T05:16:47.168Z,99950.39
2023-01-31T05:18:51.539Z,99953.44
2023-01-31T05:20:55.918Z,99945.82
2023-01-31T05:23:00.293Z,99946.32
2023-01-31T05:25:04.863Z,99955.98
2023-01-31T05:27:09.377Z,99958.27
2023-01-31T05:29:14.156Z,99968.08
2023-01-31T05:31:19.016Z,99970.13
2023-01-31T05:33:23.613Z,99971.05
2023-01-31T05:35:27.955Z,99974.5
2023-01-31T05:37:32.337Z,99978.66
2023-01-31T05:39:36.946Z,99983.14
2023-01-31T05:41:41.319Z,99987.94
2023-01-31T05:43:45.781Z,99991.98
2023-01-31T05:45:50.338Z,99992.19
2023-01-31T05:47:54.880Z,99997.67
2023-01-31T05:49:59.315Z,100007.16
2023-01-31T05:52:04.650Z,100012.03
2023-01-31T05:54:09.065Z,100016.37
2023-01-31T05:56:13.461Z,100015.69
2023-01-31T05:58:17.886Z,100018.52
2023-01-31T06:00:22.275Z,100019.78
2023-01-31T06:02:26.807Z,100011.64
2023-01-31T06:04:32.134Z,100012.63
2023-01-31T06:06:37.033Z,100010.54
2023-01-31T06:08:41.454Z,100016.07
2023-01-31T06:10:45.857Z,100015.98
2023-01-31T06:12:50.325Z,100028.34
2023-01-31T06:14:54.719Z,100031.46
2023-01-31T06:16:59.251Z,100029.11
2023-01-31T06:19:04.058Z,100041.16
2023-01-31T06:21:08.504Z,100054.47
2023-01-31T06:23:12.874Z,100046.69
2023-01-31T06:25:17.423Z,100051.1
2023-01-31T06:27:22.478Z,100063.09
2023-01-31T06:29:26.842Z,100059.44
2023-01-31T06:31:32.077Z,100054.84
2023-01-31T06:33:48.247Z,100059.27
2023-01-31T06:35:52.767Z,100057.84
2023-01-31T06:37:57.169Z,100050.02
2023-01-31T06:40:01.745Z,100055.44
2023-01-31T06:42:06.167Z,100054.84
2023-01-31T06:44:10.562Z,100057.58
2023-01-31T06:46:15.364Z,100061.17
2023-01-31T06:48:19.872Z,100070.34
2023-01-31T06:50:24.247Z,100069.81
2023-01-31T06:52:28.698Z,100065.31
2023-01-31T06:54:33.908Z,100071.14
2023-01-31T06:56:38.310Z,100071.38
2023-01-31T06:58:42.849Z,100070.78
2023-01-31T07:00:47.270Z,100073.18
2023-01-31T07:02:51.725Z,100072.95
2023-01-31T07:04:56.773Z,100078.98
2023-01-31T07:07:01.250Z,100083.92
2023-01-31T07:09:05.659Z,100083.58
2023-01-31T07:11:10.057Z,100085.09
2023-01-31T07:13:14.506Z,100079.72
2023-01-31T07:15:20.042Z,100083.28
2023-01-31T07:17:24.933Z,100082.24
2023-01-31T07:19:29.978Z,100086.38
2023-01-31T07:21:34.731Z,100081.7
2023-01-31T07:23:39.165Z,100085.61
2023-01-31T07:25:43.603Z,100094.4
2023-01-31T07:27:48.072Z,100092
2023-01-31T07:29:52.536Z,100096.23
2023-01-31T07:31:57.045Z,100101.03
2023-01-31T07:34:01.565Z,100111.86
2023-01-31T07:36:06.046Z,100112.41
2023-01-31T07:38:12.332Z,100123.39
2023-01-31T07:40:16.748Z,100128.86
2023-01-31T07:42:21.262Z,100129.26
2023-01-31T07:44:25.667Z,100135.77
2023-01-31T07:46:31.061Z,100129.57
2023-01-31T07:48:35.734Z,100136.02
2023-01-31T07:50:40.153Z,100139.02
2023-01-31T07:52:45.220Z,100139.38
2023-01-31T07:54:50.221Z,100144.94
2023-01-31T07:56:54.665Z,100142.53
2023-01-31T07:58:59.059Z,100145.84
2023-01-31T08:01:03.661Z,100153.8
2023-01-31T08:03:08.145Z,100156.62
2023-01-31T08:05:12.732Z,100154.52
2023-01-31T08:07:17.235Z,100157.4
2023-01-31T08:09:21.643Z,100158.83
2023-01-31T08:11:26.064Z,100159.88
2023-01-31T08:13:30.557Z,100165.26
2023-01-31T08:15:35.227Z,100170.2
2023-01-31T08:17:39.613Z,100164.69
2023-01-31T08:19:44.015Z,100159.22
2023-01-31T08:21:48.445Z,100169.73
2023-01-31T08:23:52.914Z,100162.82
2023-01-31T08:25:57.289Z,100159.69
2023-01-31T08:28:01.695Z,100170.09
2023-01-31T08:30:06.083Z,100163.17
2023-01-31T08:32:10.570Z,100168.2
2023-01-31T08:34:15.171Z,100165.28
2023-01-31T08:36:19.560Z,100157.97
2023-01-31T08:38:24.146Z,100165.28
2023-01-31T08:40:28.979Z,100166.28
2023-01-31T08:42:33.804Z,100164.92
2023-01-31T08:44:38.223Z,100164.27
2023-01-31T08:46:43.418Z,100166.77
2023-01-31T08:48:48.029Z,100165.2
2023-01-31T08:50:52.516Z,100167.7
2023-01-31T08:52:56.956Z,100174.24
2023-01-31T08:55:01.352Z,100164.88
2023-01-31T08:57:05.777Z,100167.3
2023-01-31T08:59:10.204Z,100170.7
2023-01-31T09:01:14.849Z,100173.75
2023-01-31T09:03:19.477Z,100178.58
2023-01-31T09:05:23.990Z,100180.97
2023-01-31T09:07:28.832Z,100182.86
2023-01-31T09:09:34.206Z,100182.75
2023-01-31T09:11:38.740Z,100193.68
2023-01-31T09:13:43.245Z,100185.38
2023-01-31T09:15:47.633Z,100184.5
2023-01-31T09:17:52.005Z,100195.95
2023-01-31T09:19:56.422Z,100207.81
2023-01-31T09:22:00.846Z,100206.94
2023-01-31T09:24:05.232Z,100214.19
2023-01-31T09:26:09.656Z,100216.83
2023-01-31T09:28:14.048Z,100225.55
2023-01-31T09:30:18.431Z,100226.02
2023-01-31T09:32:22.954Z,100224.93
2023-01-31T09:34:27.353Z,100230
2023-01-31T09:36:32.129Z,100226.41
2023-01-31T09:38:36.727Z,100222.38
2023-01-31T09:40:41.063Z,100226.72
2023-01-31T09:42:45.422Z,100224.87
2023-01-31T09:44:49.942Z,100225.48
2023-01-31T09:46:54.428Z,100220.94
2023-01-31T09:48:58.918Z,100218.56
2023-01-31T09:51:03.269Z,100209.03
2023-01-31T09:53:07.666Z,100217.7
2023-01-31T09:55:12.184Z,100218.63
2023-01-31T09:57:16.596Z,100217.86
2023-01-31T09:59:20.982Z,100215.63
2023-01-31T10:01:25.421Z,100210.13
2023-01-31T10:03:30.737Z,100205.88
2023-01-31T10:05:35.327Z,100203.66
2023-01-31T10:07:39.722Z,100210.02
2023-01-31T10:09:44.127Z,100208.64
2023-01-31T10:11:48.568Z,100203.73
2023-01-31T10:13:52.949Z,100203
2023-01-31T10:15:57.380Z,100196.34
2023-01-31T10:18:01.786Z,100192.14
2023-01-31T10:20:06.311Z,100201.08
2023-01-31T10:22:10.719Z,100185
2023-01-31T10:24:15.103Z,100184.61
2023-01-31T10:26:19.746Z,100180.66
2023-01-31T10:28:24.271Z,100178.48
2023-01-31T10:30:29.054Z,100182.47
2023-01-31T10:32:33.766Z,100179.72
2023-01-31T10:34:38.151Z,100178.83
2023-01-31T10:36:42.562Z,100180.7
2023-01-31T10:38:46.967Z,100179.39
2023-01-31T10:40:51.792Z,100183.05
2023-01-31T10:42:56.180Z,100185.3
2023-01-31T10:45:00.569Z,100180.67
2023-01-31T10:47:05.045Z,100186.77
2023-01-31T10:49:09.473Z,100184.7
2023-01-31T10:51:13.903Z,100186.85
2023-01-31T10:53:18.300Z,100180.22
2023-01-31T10:55:22.693Z,100180.33
2023-01-31T10:57:27.126Z,100168.23
2023-01-31T10:59:31.590Z,100165.36
2023-01-31T11:01:36.087Z,100158.73
2023-01-31T11:03:40.504Z,100157.95
2023-01-31T11:05:45.012Z,100155.14
2023-01-31T11:07:49.547Z,100157.84
2023-01-31T11:09:54.026Z,100159.14
2023-01-31T11:11:58.550Z,100159.18
2023-01-31T11:14:02.959Z,100156.92
2023-01-31T11:16:07.394Z,100147.84
2023-01-31T11:18:11.779Z,100151.56
2023-01-31T11:20:16.201Z,100151.27
2023-01-31T11:22:20.643Z,100142.3
2023-01-31T11:24:25.098Z,100136.8
2023-01-31T11:26:29.611Z,100131.52
2023-01-31T11:28:34.065Z,100129.22
2023-01-31T11:30:38.540Z,100128.38
2023-01-31T11:32:42.970Z,100120.41
2023-01-31T11:34:47.449Z,100116.89
2023-01-31T11:36:51.851Z,100117.01
2023-01-31T11:38:56.377Z,100113.55
2023-01-31T11:41:00.812Z,100110.39
2023-01-31T11:43:05.213Z,100110.54
2023-01-31T11:45:09.662Z,100108.7
2023-01-31T11:47:14.109Z,100107.64
2023-01-31T11:49:18.531Z,100110.03
2023-01-31T11:51:22.962Z,100105.02
2023-01-31T11:53:27.377Z,100104.95
2023-01-31T11:55:31.813Z,100104.64
2023-01-31T11:57:36.216Z,100094.02
2023-01-31T11:59:40.638Z,100096.53
2023-01-31T12:01:45.085Z,100099.11
2023-01-31T12:04:04.289Z,100093.63
2023-01-31T12:06:09.108Z,100100.46
2023-01-31T12:08:13.520Z,100090.22
2023-01-31T12:10:18.016Z,100080.36
2023-01-31T12:12:22.896Z,100084.05
2023-01-31T12:14:27.403Z,100081.83
2023-01-31T12:16:31.853Z,100072.4
2023-01-31T12:18:36.342Z,100071.09
2023-01-31T12:20:40.801Z,100066.34
2023-01-31T12:22:45.237Z,100066.57
2023-01-31T12:24:49.717Z,100062.11
2023-01-31T12:26:54.316Z,100057.68
2023-01-31T12:28:58.894Z,100053.91
2023-01-31T12:31:03.549Z,100062.24
2023-01-31T12:33:08.150Z,100048.47
2023-01-31T12:35:12.569Z,100048.69
2023-01-31T12:37:17.020Z,100040.83
2023-01-31T12:39:21.444Z,100039.06
2023-01-31T12:41:25.839Z,100037.53
2023-01-31T12:43:30.315Z,100039.77
2023-01-31T12:45:34.769Z,100041.31
2023-01-31T12:47:39.424Z,100037.48
2023-01-31T12:49:43.879Z,100036.22
2023-01-31T12:51:48.462Z,100030.59
2023-01-31T12:53:55.154Z,100029.97
2023-01-31T12:55:59.571Z,100023.7
2023-01-31T12:58:05.899Z,100021.08
2023-01-31T13:00:10.602Z,100026.11
2023-01-31T13:02:15.076Z,100023.08
2023-01-31T13:04:19.633Z,100027.56
2023-01-31T13:06:24.128Z,100028.58
2023-01-31T13:08:28.586Z,100034.04
2023-01-31T13:10:33.119Z,100034.8
2023-01-31T13:12:37.552Z,100023.03
2023-01-31T13:14:41.966Z,100018.79
2023-01-31T13:16:46.448Z,100012.28
2023-01-31T13:18:51.008Z,100010.3
2023-01-31T13:20:55.431Z,100011.95
2023-01-31T13:22:59.854Z,100005.73
2023-01-31T13:25:04.438Z,100001.16
2023-01-31T13:27:08.828Z,99997.6
2023-01-31T13:29:13.254Z,99986.83
2023-01-31T13:31:17.858Z,99987.73
2023-01-31T13:33:22.380Z,99981.5
2023-01-31T13:35:26.822Z,99979.05
2023-01-31T13:37:31.212Z,99972.92
2023-01-31T13:39:35.647Z,99971.49
2023-01-31T13:41:40.074Z,99970.41
2023-01-31T13:43:44.602Z,99975.24
2023-01-31T13:45:48.980Z,99972.75
2023-01-31T13:47:53.356Z,99968.48
2023-01-31T13:49:57.722Z,99962.95
2023-01-31T13:52:02.136Z,99968.59
2023-01-31T13:54:07.758Z,99960.45
2023-01-31T13:56:12.131Z,99958.29
2023-01-31T13:58:16.504Z,99958.59
2023-01-31T14:00:20.857Z,99960.36
2023-01-31T14:02:25.181Z,99963.95
2023-01-31T14:04:29.812Z,99970.17
2023-01-31T14:06:34.165Z,99962.7
2023-01-31T14:08:38.590Z,99959.19
2023-01-31T14:10:42.940Z,99959.8
2023-01-31T14:12:47.379Z,99957.55
2023-01-31T14:14:51.877Z,99950.99
2023-01-31T14:16:56.246Z,99947.67
2023-01-31T14:19:00.598Z,99942.96
2023-01-31T14:21:04.936Z,99944.03
2023-01-31T14:23:09.296Z,99939.83
2023-01-31T14:25:13.630Z,99934.38
2023-01-31T14:27:17.950Z,99935.84
2023-01-31T14:29:22.272Z,99932.3
2023-01-31T14:31:26.659Z,99935.38
2023-01-31T14:33:31.062Z,99927.3
2023-01-31T14:35:35.387Z,99922.66
2023-01-31T14:37:39.740Z,99919.55
2023-01-31T14:39:44.122Z,99913.33
2023-01-31T14:41:48.656Z,99911.81
2023-01-31T14:43:52.999Z,99905.01
2023-01-31T14:45:57.546Z,99900.54
2023-01-31T14:48:02.055Z,99896.42
2023-01-31T14:50:06.553Z,99894.58
2023-01-31T14:52:10.892Z,99892.69
2023-01-31T14:54:15.259Z,99898.79
2023-01-31T14:56:19.613Z,99900.41
2023-01-31T14:58:23.944Z,99896.99
2023-01-31T15:00:28.359Z,99892.55
2023-01-31T15:02:33.409Z,99890.83
2023-01-31T15:04:38.082Z,99895.08
2023-01-31T15:06:42.435Z,99894.07
2023-01-31T15:08:46.783Z,99884.59
2023-01-31T15:10:51.170Z,99892.38
2023-01-31T15:12:55.539Z,99890.29
2023-01-31T15:15:00.004Z,99884.14
2023-01-31T15:17:04.371Z,99889.39
2023-01-31T15:19:08.713Z,99889.27
2023-01-31T15:21:13.176Z,99886.83
2023-01-31T15:23:18.831Z,99884.66
2023-01-31T15:25:25.058Z,99879.89
2023-01-31T15:27:29.471Z,99879.61
2023-01-31T15:29:33.854Z,99882.66
2023-01-31T15:31:38.443Z,99887.14
2023-01-31T15:33:42.821Z,99886.91
2023-01-31T15:35:47.326Z,99879.16
2023-01-31T15:37:51.808Z,99879.68
2023-01-31T15:39:56.179Z,99879.85
2023-01-31T15:42:00.718Z,99878.23
2023-01-31T15:44:05.092Z,99880.36
2023-01-31T15:46:09.728Z,99874.13
2023-01-31T15:48:14.198Z,99879.36
2023-01-31T15:50:18.649Z,99882.23
2023-01-31T15:52:23.015Z,99881.55
2023-01-31T15:54:27.390Z,99881.05
2023-01-31T15:56:31.791Z,99871.09
2023-01-31T15:58:36.177Z,99880.06
2023-01-31T16:00:40.526Z,99867.45
2023-01-31T16:02:45.019Z,99868.11
2023-01-31T16:04:49.541Z,99861.45
2023-01-31T16:06:53.900Z,99856.92
2023-01-31T16:09:02.407Z,99860.52
2023-01-31T16:11:06.885Z,99857.78
2023-01-31T16:13:11.258Z,99857.19
2023-01-31T16:15:15.667Z,99855.46
2023-01-31T16:17:19.967Z,99848.19
2023-01-31T16:19:24.398Z,99842.7
2023-01-31T16:21:28.923Z,99848.48
2023-01-31T16:23:33.347Z,99836.72
2023-01-31T16:25:37.739Z,99836.22
2023-01-31T16:27:42.091Z,99844.59
2023-01-31T16:29:46.464Z,99841.55
2023-01-31T16:31:51.257Z,99836.1
2023-01-31T16:33:55.795Z,99830.02
2023-01-31T16:36:17.455Z,99834.36
2023-01-31T16:38:22.675Z,99825.66
2023-01-31T16:40:27.072Z,99823.73
2023-01-31T16:42:31.407Z,99820.44
2023-01-31T16:44:35.754Z,99814.28
2023-01-31T16:46:40.139Z,99816.66
2023-01-31T16:48:44.534Z,99811.93
2023-01-31T16:50:48.889Z,99816.06
2023-01-31T16:52:53.259Z,99806.45
2023-01-31T16:54:57.716Z,99810.79
2023-01-31T16:57:02.248Z,99807.19
2023-01-31T16:59:06.973Z,99811.67
2023-01-31T17:01:11.494Z,99802.7
2023-01-31T17:03:16.066Z,99801.17
2023-01-31T17:05:21.442Z,99795.66
2023-01-31T17:07:26.434Z,99787.83
2023-01-31T17:09:30.828Z,99787.23
2023-01-31T17:11:44.015Z,99788.72
2023-01-31T17:13:48.393Z,99780.55
2023-01-31T17:15:52.818Z,99777.2
2023-01-31T17:17:57.464Z,99779.67
2023-01-31T17:20:01.858Z,99767.79
2023-01-31T17:22:06.251Z,99764.16
2023-01-31T17:24:10.624Z,99761.66
2023-01-31T17:26:15.140Z,99756.33
2023-01-31T17:28:19.727Z,99759.51
2023-01-31T17:30:24.223Z,99759.26
2023-01-31T17:32:29.042Z,99751.81
2023-01-31T17:34:36.437Z,99751.07
2023-01-31T17:36:40.850Z,99753.09
2023-01-31T17:38:45.177Z,99745.55
2023-01-31T17:40:49.753Z,99749.89
2023-01-31T17:42:54.129Z,99742.42
2023-01-31T17:44:58.550Z,99751.31
2023-01-31T17:47:02.956Z,99741.23
2023-01-31T17:49:07.369Z,99732.58
2023-01-31T17:51:11.865Z,99732.09
2023-01-31T17:53:16.361Z,99730.79
2023-01-31T17:55:21.591Z,99734.48
2023-01-31T17:57:26.857Z,99723.25
2023-01-31T17:59:31.292Z,99725.69
2023-01-31T18:01:35.861Z,99719.84
2023-01-31T18:03:40.467Z,99715.52
2023-01-31T18:05:45.557Z,99718.73
2023-01-31T18:07:50.006Z,99716.97
2023-01-31T18:09:54.416Z,99713.16
2023-01-31T18:11:58.896Z,99719.41
2023-01-31T18:14:03.274Z,99712.88
2023-01-31T18:16:07.829Z,99710.52
2023-01-31T18:18:12.355Z,99710.58
2023-01-31T18:20:16.735Z,99710.81
2023-01-31T18:22:21.093Z,99705.86
2023-01-31T18:24:25.446Z,99710.7
2023-01-31T18:26:30.025Z,99716.16
2023-01-31T18:28:34.627Z,99698.91
2023-01-31T18:30:39.160Z,99715.02
2023-01-31T18:32:43.756Z,99720.09
2023-01-31T18:34:48.153Z,99699.83
2023-01-31T18:36:52.567Z,99712.73
2023-01-31T18:38:57.112Z,99706.3
2023-01-31T18:41:01.463Z,99696.33
2023-01-31T18:43:05.851Z,99680.74
2023-01-31T18:45:10.283Z,99674.33
2023-01-31T18:47:14.679Z,99684.48
2023-01-31T18:49:19.075Z,99684.91
2023-01-31T18:51:23.555Z,99688.2
2023-01-31T18:53:27.994Z,99697.52
2023-01-31T18:55:32.378Z,99696.63
2023-01-31T18:57:36.784Z,99701.29
2023-01-31T18:59:41.318Z,99703.93
2023-01-31T19:01:45.925Z,99701.4
2023-01-31T19:03:50.422Z,99699.05
2023-01-31T19:05:54.896Z,99703.47
2023-01-31T19:07:59.300Z,99698.73
2023-01-31T19:10:03.742Z,99692.6
2023-01-31T19:12:08.147Z,99691.3
2023-01-31T19:14:12.558Z,99691.3
2023-01-31T19:16:17.196Z,99681.45
2023-01-31T19:18:21.704Z,99675.27
2023-01-31T19:20:26.032Z,99670.86
2023-01-31T19:22:30.426Z,99671.17
2023-01-31T19:24:34.807Z,99660.73
2023-01-31T19:26:39.422Z,99657.31
2023-01-31T19:28:44.017Z,99662.78
2023-01-31T19:30:48.485Z,99655.95
2023-01-31T19:32:52.867Z,99655.45
2023-01-31T19:34:57.183Z,99649.45
2023-01-31T19:37:01.481Z,99641.7
2023-01-31T19:39:05.958Z,99648
2023-01-31T19:41:10.331Z,99646.96
2023-01-31T19:43:14.732Z,99652.95
2023-01-31T19:45:23.952Z,99646.82
2023-01-31T19:47:28.725Z,99641.45
2023-01-31T19:49:33.014Z,99629.64
2023-01-31T19:51:37.324Z,99630.41
2023-01-31T19:53:41.798Z,99629.1
2023-01-31T19:55:46.176Z,99617.73
2023-01-31T19:57:50.573Z,99616.2
2023-01-31T19:59:54.934Z,99612.69
2023-01-31T20:01:59.449Z,99612.64
2023-01-31T20:04:03.980Z,99606.98
2023-01-31T20:06:08.388Z,99608.56
2023-01-31T20:08:12.737Z,99608.08
2023-01-31T20:10:17.117Z,99594.91
2023-01-31T20:12:21.481Z,99593.02
2023-01-31T20:14:25.808Z,99591.31
2023-01-31T20:16:30.304Z,99595.69
2023-01-31T20:18:34.878Z,99600.69
2023-01-31T20:20:39.331Z,99599.78
2023-01-31T20:22:43.718Z,99592.95
2023-01-31T20:24:48.076Z,99593.47
2023-01-31T20:26:52.929Z,99595.41
2023-01-31T20:28:57.555Z,99598.22
2023-01-31T20:31:02.052Z,99584.83
2023-01-31T20:33:06.619Z,99593.88
2023-01-31T20:35:11.085Z,99584.79
2023-01-31T20:37:15.456Z,99588.44
2023-01-31T20:39:19.825Z,99584.16
2023-01-31T20:41:24.431Z,99594.27
2023-01-31T20:43:28.864Z,99597.88
2023-01-31T20:45:33.376Z,99597.98
2023-01-31T20:47:37.733Z,99586.83
2023-01-31T20:49:42.095Z,99584.05
2023-01-31T20:51:46.470Z,99589.84
2023-01-31T20:53:51.048Z,99582.14
2023-01-31T20:55:55.587Z,99591.02
2023-01-31T20:58:00.029Z,99598.55
2023-01-31T21:00:04.457Z,99607.63
2023-01-31T21:02:08.955Z,99593.31
2023-01-31T21:04:13.395Z,99594.41
2023-01-31T21:06:17.789Z,99584.48
2023-01-31T21:08:22.184Z,99589.95
2023-01-31T21:10:26.588Z,99589.75
2023-01-31T21:12:30.958Z,99580.18
2023-01-31T21:14:35.354Z,99583.89
2023-01-31T21:16:39.713Z,99581.56
2023-01-31T21:18:44.197Z,99578.83
2023-01-31T21:20:48.596Z,99578.63
2023-01-31T21:22:52.962Z,99577.52
2023-01-31T21:24:57.341Z,99571.83
2023-01-31T21:27:01.766Z,99576.52
2023-01-31T21:29:06.274Z,99571.86
2023-01-31T21:31:11.078Z,99564.53
2023-01-31T21:33:15.827Z,99562.64
2023-01-31T21:35:20.185Z,99566.59
2023-01-31T21:37:24.548Z,99556.47
2023-01-31T21:39:28.921Z,99565.64
2023-01-31T21:41:33.309Z,99563.07
2023-01-31T21:43:37.642Z,99562.45
2023-01-31T21:45:42.059Z,99558.83
2023-01-31T21:47:46.422Z,99554.79
2023-01-31T21:49:50.734Z,99560.14
2023-01-31T21:51:55.111Z,99558.11
2023-01-31T21:53:59.468Z,99552.65
2023-01-31T21:56:03.837Z,99541.47
2023-01-31T21:58:08.227Z,99533.64
2023-01-31T22:00:12.563Z,99546.2
2023-01-31T22:02:17.043Z,99543.67
2023-01-31T22:04:21.441Z,99535.13
2023-01-31T22:06:25.886Z,99548.98
2023-01-31T22:08:32.367Z,99557.94
2023-01-31T22:10:36.731Z,99555.94
2023-01-31T22:12:41.081Z,99559.77
2023-01-31T22:14:45.435Z,99551.55
2023-01-31T22:16:49.766Z,99546.02
2023-01-31T22:18:54.097Z,99547.98
2023-01-31T22:20:58.455Z,99545.07
2023-01-31T22:23:02.784Z,99550.47
2023-01-31T22:25:07.126Z,99549.02
2023-01-31T22:27:11.490Z,99547.43
2023-01-31T22:29:15.850Z,99549.95
2023-01-31T22:31:20.552Z,99557.04
2023-01-31T22:33:25.071Z,99550.27
2023-01-31T22:35:29.423Z,99542.71
2023-01-31T22:37:33.803Z,99544.83
2023-01-31T22:39:38.140Z,99544.38
2023-01-31T22:41:42.497Z,99549.73
2023-01-31T22:43:46.861Z,99549.56
2023-01-31T22:45:51.240Z,99539.05
2023-01-31T22:47:55.571Z,99551.27
2023-01-31T22:50:01.020Z,99539
2023-01-31T22:52:05.396Z,99553.16
2023-01-31T22:54:09.765Z,99536.97
2023-01-31T22:56:14.107Z,99656.78
2023-01-31T22:58:18.562Z,99684.06
2023-01-31T23:00:23.664Z,99682.86
2023-01-31T23:02:28.174Z,99661.08
2023-01-31T23:04:32.819Z,99682.86
2023-01-31T23:06:37.349Z,99671.17
2023-01-31T23:08:42.036Z,99649.86
2023-01-31T23:10:46.478Z,99658.74
2023-01-31T23:12:50.844Z,99652.23
2023-01-31T23:14:55.259Z,99629.86
2023-01-31T23:16:59.608Z,99634.48
2023-01-31T23:19:04.092Z,99643.42
2023-01-31T23:21:08.472Z,99649.42
2023-01-31T23:23:12.805Z,99640.96
2023-01-31T23:25:17.448Z,99613.34
2023-01-31T23:27:21.897Z,99615.16
2023-01-31T23:29:26.240Z,99624.98
2023-01-31T23:31:30.883Z,99636.75
2023-01-31T23:33:35.592Z,99631.8
2023-01-31T23:35:39.957Z,99623.66
2023-01-31T23:37:44.294Z,99610.92
2023-01-31T23:39:48.622Z,99616.99
2023-01-31T23:41:52.994Z,99625.33
2023-01-31T23:43:57.453Z,99639.02
2023-01-31T23:46:01.983Z,99637.11
2023-01-31T23:48:06.417Z,99650.55
2023-01-31T23:50:10.757Z,99638.64
2023-01-31T23:52:15.182Z,99625.55
2023-01-31T23:54:19.636Z,99632.8
2023-01-31T23:56:23.983Z,99640.92
2023-01-31T23:58:28.498Z,99633.11
